Wind EuroAirport

Messzeit Windrichtung Windgeschwindigkeit [Knoten] Rückenwind Nordpiste [Knoten] METAR
2017-03-24 16:00 N 10°
(330°–40°)
9 5–9 LFSB 241500Z 01009KT 330V040 9999 BKN024 BKN210 13/08 Q1022 NOSIG
2017-03-24 15:30 var 360°
(320°–50°)
8 3–8 LFSB 241430Z 36008KT 320V050 9999 FEW016 BKN024 13/08 Q1022 NOSIG
2017-03-24 15:00 var 360°
(330°–30°)
9 6–9 LFSB 241400Z 36009KT 330V030 9999 FEW016 BKN022 12/08 Q1022 NOSIG
2017-03-24 14:30 var 360°
(330°–40°)
21 11–21 LFSB 241330Z 36009G21KT 330V040 9999 FEW016 BKN023 12/08 Q1022 NOSIG
2017-03-24 14:00 var 360°
(330°–40°)
8 4–8 LFSB 241300Z 36008KT 330V040 9999 FEW015 BKN021 12/08 Q1022 NOSIG
2017-03-24 13:30 N 350°
(320°–30°)
7 4–7 LFSB 241230Z 35007KT 320V030 9999 FEW013 SCT016 BKN021 11/07 Q1022 NOSIG
2017-03-24 13:00 var 360°
(330°–40°)
5 3–5 LFSB 241200Z 36005KT 330V040 9000 BKN013 OVC020 11/08 Q1022 BECMG 9999 BKN020
2017-03-24 12:30 N 350°
(320°–20°)
6 5–6 LFSB 241130Z 35006KT 320V020 9000 BKN013 OVC016 10/07 Q1022 BECMG 9999 BKN020
2017-03-24 12:00 var 360°
(330°–40°)
4 2–4 LFSB 241100Z 36004KT 330V040 9000 FEW010 BKN012 OVC016 10/07 Q1022 BECMG 9999 BKN020
2017-03-24 11:30 N 350°
(320°–20°)
6 5–6 LFSB 241030Z 35006KT 320V020 8000 FEW010 BKN012 OVC016 10/07 Q1022 BECMG 9999 BKN020
2017-03-24 11:00 NW 330° 6 6 LFSB 241000Z 33006KT 8000 FEW010 OVC016 09/07 Q1022 BECMG 9999 BKN020
2017-03-24 10:30 N 340°
(320°–20°)
7 5–7 LFSB 240930Z 34007KT 320V020 8000 FEW013 OVC016 09/07 Q1021 NOSIG
2017-03-24 10:00 N 340° 7 7 LFSB 240900Z 34007KT 8000 SCT012 OVC015 09/06 Q1021 TEMPO BKN013
2017-03-24 09:30 var 360° 8 8 LFSB 240830Z 36008KT 8000 SCT011 OVC017 09/06 Q1021 TEMPO BKN013
2017-03-24 09:00 var 360°
(320°–20°)
6 5–6 LFSB 240800Z 36006KT 320V020 8000 FEW010 BKN017 09/07 Q1021 NOSIG
2017-03-24 08:30 NW 330° 7 7 LFSB 240730Z 33007KT 8000 FEW015 BKN017 09/07 Q1021 NOSIG
2017-03-24 08:00 NW 330° 8 8 LFSB 240700Z 33008KT 7000 FEW015 BKN016 08/07 Q1020 TEMPO BKN010
2017-03-24 07:30 N 340° 7 7 LFSB 240630Z 34007KT 9000 FEW015 BKN016 08/07 Q1020 TEMPO BKN010
2017-03-24 07:00 var 360°
(320°–20°)
6 5–6 LFSB 240600Z 36006KT 320V020 9999 BKN018 09/07 Q1019 TEMPO BKN014
2017-03-24 06:30 NW 330° 4 4 LFSB 240530Z 33004KT 9999 BKN018 09/08 Q1020 TEMPO BKN014
2017-03-24 06:00 O 80° 3 - LFSB 240500Z 08003KT 9999 BKN016 10/07 Q1019 TEMPO BKN014
2017-03-24 05:30 - 0 - LFSB 240430Z 00000KT 9999 BKN016 10/07 Q1019 TEMPO BKN014
2017-03-24 05:00 NO 60° 1 - LFSB 240400Z 06001KT 9999 BKN016 10/07 Q1019 TEMPO BKN014
2017-03-24 04:30 - 2 - LFSB 240330Z VRB02KT 9999 BKN016 10/07 Q1019 TEMPO BKN014
2017-03-24 04:00 - 2 - LFSB 240300Z AUTO VRB02KT 9999 OVC014 10/08 Q1019 TEMPO 3000 BR BECMG FEW030
2017-03-24 03:30 - 2 - LFSB 240230Z AUTO VRB02KT 9999 OVC014 10/07 Q1019 TEMPO 3000 BR BECMG FEW030
2017-03-24 03:00 - 2 - LFSB 240200Z AUTO VRB02KT 9999 OVC014 10/08 Q1019 TEMPO 3000 BR BECMG FEW030
2017-03-24 02:30 NW 300° 6 5 LFSB 240130Z AUTO 30006KT 9999 BKN016 OVC024 10/08 Q1019 TEMPO 3000 BR
2017-03-24 02:00 NW 330°
(290°–360°)
5 3–5 LFSB 240100Z AUTO 33005KT 290V360 9999 BKN016 BKN025 OVC032 10/07 Q1019 NOSIG
2017-03-24 01:30 W 270°
(230°–320°)
4 0–4 LFSB 240030Z AUTO 27004KT 230V320 9999 FEW030 BKN036 OVC047 09/07 Q1019 NOSIG
2017-03-24 01:00 - 2 - LFSB 240000Z AUTO VRB02KT 9999 BKN035 BKN048 BKN240 08/06 Q1018 NOSIG
2017-03-24 00:30 W 270°
(240°–320°)
4 0–4 LFSB 232330Z AUTO 27004KT 240V320 9999 SCT032 09/06 Q1017 NOSIG
2017-03-24 00:00 W 280°
(240°–320°)
4 0–4 LFSB 232300Z 28004KT 240V320 9999 FEW029 SCT260 09/06 Q1016 NOSIG
2017-03-23 23:30 NW 310° 9 8 LFSB 232230Z 31009KT CAVOK 10/07 Q1016 NOSIG
2017-03-23 23:00 NW 300° 7 5 LFSB 232200Z 30007KT CAVOK 10/07 Q1015 NOSIG
2017-03-23 22:30 NW 320° 6 6 LFSB 232130Z 32006KT CAVOK 09/07 Q1014 NOSIG
2017-03-23 22:00 NW 320° 7 7 LFSB 232100Z 32007KT CAVOK 10/07 Q1013 NOSIG
2017-03-23 21:30 NW 300° 5 4 LFSB 232030Z 30005KT CAVOK 11/07 Q1013 NOSIG
2017-03-23 21:00 W 290°
(260°–320°)
6 1–6 LFSB 232000Z 29006KT 260V320 CAVOK 12/08 Q1012 NOSIG
2017-03-23 20:30 NW 330° 6 6 LFSB 231930Z 33006KT CAVOK 12/08 Q1012 NOSIG
2017-03-23 20:00 N 350° 7 7 LFSB 231900Z 35007KT CAVOK 13/08 Q1011 NOSIG
2017-03-23 19:30 N 350° 8 8 LFSB 231830Z 35008KT CAVOK 13/08 Q1011 NOSIG
2017-03-23 19:00 var 360°
(330°–30°)
9 6–9 LFSB 231800Z 36009KT 330V030 9999 FEW040 SCT130 BKN180 14/08 Q1011 NOSIG
2017-03-23 18:30 N 350°
(320°–20°)
9 7–9 LFSB 231730Z 35009KT 320V020 9999 FEW040 BKN120 BKN190 15/08 Q1010 NOSIG
2017-03-23 18:00 N 350° 7 7 LFSB 231700Z 35007KT 9999 FEW040 BKN120 BKN200 15/08 Q1010 NOSIG
2017-03-23 17:30 N 350°
(320°–20°)
8 6–8 LFSB 231630Z 35008KT 320V020 9999 FEW040 SCT180 BKN200 16/08 Q1010 NOSIG
2017-03-23 17:00 var 360° 8 8 LFSB 231600Z 36008KT 9999 FEW040 BKN260 17/08 Q1010 NOSIG